Belhaven, North Carolina
Current Conditions -  °F | °C
As of 8:35 AM on Friday 28 Nov 2014 (Local Time) from KOCW Reporting Station
Clear Clear  
Wind Chill: 27°   Ceiling: Unl
Heat Index: 34°   Visibility: 10mi
Dew Point: 26°   Wind: 8mph
Humidity: 72%   Direction: 330°NNW
Pressure: 30.34"   Gusts: NA
Location:  35.54°N, 76.62°W
Report Text: KOCW 281335Z AUTO 33007KT 10SM CLR 01/M04 A3034 RMK AO2 T00101036
Loading
Personal Weather Stations






























Interactive Weather Map New forecast layout! Learn more

10-Day Weather Forecast

Advertisements
Track Severe Weather on mobile